sensor_id;sensor_type;location;lat;lon;timestamp;temperature;humidity
20973;DHT22;10645;52.370;13.314;2023-05-07T00:00:59;8.50;99.90
20973;DHT22;10645;52.370;13.314;2023-05-07T00:03:25;8.50;99.90
20973;DHT22;10645;52.370;13.314;2023-05-07T00:05:52;8.50;99.90
20973;DHT22;10645;52.370;13.314;2023-05-07T00:08:19;8.50;99.90
20973;DHT22;10645;52.370;13.314;2023-05-07T00:10:46;8.50;99.90
20973;DHT22;10645;52.370;13.314;2023-05-07T00:13:12;8.50;99.90
20973;DHT22;10645;52.370;13.314;2023-05-07T00:15:38;8.50;99.90
20973;DHT22;10645;52.370;13.314;2023-05-07T00:18:04;8.50;99.90
20973;DHT22;10645;52.370;13.314;2023-05-07T00:20:30;8.50;99.90
20973;DHT22;10645;52.370;13.314;2023-05-07T00:22:57;8.50;99.90
20973;DHT22;10645;52.370;13.314;2023-05-07T00:25:23;8.50;99.90
20973;DHT22;10645;52.370;13.314;2023-05-07T00:27:49;8.50;99.90
20973;DHT22;10645;52.370;13.314;2023-05-07T00:30:15;8.50;99.90
20973;DHT22;10645;52.370;13.314;2023-05-07T00:32:41;8.50;99.90
20973;DHT22;10645;52.370;13.314;2023-05-07T00:35:08;8.50;99.90
20973;DHT22;10645;52.370;13.314;2023-05-07T00:37:34;8.50;99.90
20973;DHT22;10645;52.370;13.314;2023-05-07T00:40:00;8.50;99.90
20973;DHT22;10645;52.370;13.314;2023-05-07T00:42:28;8.50;99.90
20973;DHT22;10645;52.370;13.314;2023-05-07T00:44:55;8.50;99.90
20973;DHT22;10645;52.370;13.314;2023-05-07T00:47:21;8.50;99.90
20973;DHT22;10645;52.370;13.314;2023-05-07T00:49:47;8.50;99.90
20973;DHT22;10645;52.370;13.314;2023-05-07T00:52:15;8.50;99.90
20973;DHT22;10645;52.370;13.314;2023-05-07T00:54:42;8.50;99.90
20973;DHT22;10645;52.370;13.314;2023-05-07T00:57:10;8.50;99.90
20973;DHT22;10645;52.370;13.314;2023-05-07T00:59:37;8.50;99.90
20973;DHT22;10645;52.370;13.314;2023-05-07T01:02:04;8.50;99.90
20973;DHT22;10645;52.370;13.314;2023-05-07T01:04:30;8.50;99.90
20973;DHT22;10645;52.370;13.314;2023-05-07T01:06:57;8.50;99.90
20973;DHT22;10645;52.370;13.314;2023-05-07T01:09:24;8.50;99.90
20973;DHT22;10645;52.370;13.314;2023-05-07T01:11:52;8.50;99.90
20973;DHT22;10645;52.370;13.314;2023-05-07T01:14:19;8.50;99.90
20973;DHT22;10645;52.370;13.314;2023-05-07T01:16:47;8.50;99.90
20973;DHT22;10645;52.370;13.314;2023-05-07T01:19:14;8.50;99.90
20973;DHT22;10645;52.370;13.314;2023-05-07T01:21:46;8.50;99.90
20973;DHT22;10645;52.370;13.314;2023-05-07T01:24:14;8.40;99.90
20973;DHT22;10645;52.370;13.314;2023-05-07T01:26:41;8.40;99.90
20973;DHT22;10645;52.370;13.314;2023-05-07T01:29:08;8.50;99.90
20973;DHT22;10645;52.370;13.314;2023-05-07T01:31:34;8.50;99.90
20973;DHT22;10645;52.370;13.314;2023-05-07T01:34:02;8.40;99.90
20973;DHT22;10645;52.370;13.314;2023-05-07T01:36:30;8.40;99.90
20973;DHT22;10645;52.370;13.314;2023-05-07T01:38:58;8.40;99.90
20973;DHT22;10645;52.370;13.314;2023-05-07T01:41:24;8.40;99.90
20973;DHT22;10645;52.370;13.314;2023-05-07T01:43:52;8.40;99.90
20973;DHT22;10645;52.370;13.314;2023-05-07T01:46:19;8.40;99.90
20973;DHT22;10645;52.370;13.314;2023-05-07T01:48:46;8.40;99.90
20973;DHT22;10645;52.370;13.314;2023-05-07T01:51:12;8.40;99.90
20973;DHT22;10645;52.370;13.314;2023-05-07T01:53:39;8.40;99.90
20973;DHT22;10645;52.370;13.314;2023-05-07T01:56:06;8.40;99.90
20973;DHT22;10645;52.370;13.314;2023-05-07T01:58:34;8.40;99.90
20973;DHT22;10645;52.370;13.314;2023-05-07T02:01:01;8.40;99.90
20973;DHT22;10645;52.370;13.314;2023-05-07T02:03:27;8.40;99.90
20973;DHT22;10645;52.370;13.314;2023-05-07T02:06:02;8.40;99.90
20973;DHT22;10645;52.370;13.314;2023-05-07T02:08:32;8.40;99.90
20973;DHT22;10645;52.370;13.314;2023-05-07T02:10:59;8.40;99.90
20973;DHT22;10645;52.370;13.314;2023-05-07T02:13:31;8.40;99.90
20973;DHT22;10645;52.370;13.314;2023-05-07T02:15:57;8.40;99.90
20973;DHT22;10645;52.370;13.314;2023-05-07T02:18:24;8.40;99.90
20973;DHT22;10645;52.370;13.314;2023-05-07T02:20:51;8.40;99.90
20973;DHT22;10645;52.370;13.314;2023-05-07T02:23:17;8.40;99.90
20973;DHT22;10645;52.370;13.314;2023-05-07T02:25:43;8.40;99.90
20973;DHT22;10645;52.370;13.314;2023-05-07T02:28:09;8.40;99.90
20973;DHT22;10645;52.370;13.314;2023-05-07T02:30:48;8.40;99.90
20973;DHT22;10645;52.370;13.314;2023-05-07T02:33:14;8.40;99.90
20973;DHT22;10645;52.370;13.314;2023-05-07T02:35:40;8.40;99.90
20973;DHT22;10645;52.370;13.314;2023-05-07T02:38:07;8.40;99.90
20973;DHT22;10645;52.370;13.314;2023-05-07T02:40:34;8.40;99.90
20973;DHT22;10645;52.370;13.314;2023-05-07T02:43:04;8.40;99.90
20973;DHT22;10645;52.370;13.314;2023-05-07T02:45:35;8.40;99.90
20973;DHT22;10645;52.370;13.314;2023-05-07T02:48:03;8.40;99.90
20973;DHT22;10645;52.370;13.314;2023-05-07T02:50:29;8.40;99.90
20973;DHT22;10645;52.370;13.314;2023-05-07T02:52:56;8.40;99.90
20973;DHT22;10645;52.370;13.314;2023-05-07T02:55:22;8.30;99.90
20973;DHT22;10645;52.370;13.314;2023-05-07T02:57:48;8.40;99.90
20973;DHT22;10645;52.370;13.314;2023-05-07T03:00:16;8.40;99.90
20973;DHT22;10645;52.370;13.314;2023-05-07T03:02:49;8.40;99.90
20973;DHT22;10645;52.370;13.314;2023-05-07T03:05:15;8.40;99.90
20973;DHT22;10645;52.370;13.314;2023-05-07T03:07:41;8.40;99.90
20973;DHT22;10645;52.370;13.314;2023-05-07T03:10:11;8.40;99.90
20973;DHT22;10645;52.370;13.314;2023-05-07T03:12:37;8.40;99.90
20973;DHT22;10645;52.370;13.314;2023-05-07T03:15:04;8.40;99.90
20973;DHT22;10645;52.370;13.314;2023-05-07T03:17:30;8.30;99.90
20973;DHT22;10645;52.370;13.314;2023-05-07T03:19:56;8.40;99.90
20973;DHT22;10645;52.370;13.314;2023-05-07T03:22:22;8.40;99.90
20973;DHT22;10645;52.370;13.314;2023-05-07T03:24:48;8.40;99.90
20973;DHT22;10645;52.370;13.314;2023-05-07T03:27:14;8.40;99.90
20973;DHT22;10645;52.370;13.314;2023-05-07T03:29:41;8.40;99.90
20973;DHT22;10645;52.370;13.314;2023-05-07T03:32:07;8.40;99.90
20973;DHT22;10645;52.370;13.314;2023-05-07T03:34:33;8.40;99.90
20973;DHT22;10645;52.370;13.314;2023-05-07T03:36:59;8.40;99.90
20973;DHT22;10645;52.370;13.314;2023-05-07T03:39:25;8.40;99.90
20973;DHT22;10645;52.370;13.314;2023-05-07T03:41:52;8.40;99.90
20973;DHT22;10645;52.370;13.314;2023-05-07T03:44:18;8.30;99.90
20973;DHT22;10645;52.370;13.314;2023-05-07T03:46:44;8.40;99.90
20973;DHT22;10645;52.370;13.314;2023-05-07T03:49:11;8.40;99.90
20973;DHT22;10645;52.370;13.314;2023-05-07T03:51:37;8.40;99.90
20973;DHT22;10645;52.370;13.314;2023-05-07T03:54:05;8.40;99.90
20973;DHT22;10645;52.370;13.314;2023-05-07T03:56:32;8.40;99.90
20973;DHT22;10645;52.370;13.314;2023-05-07T03:59:00;8.40;99.90
20973;DHT22;10645;52.370;13.314;2023-05-07T04:01:26;8.40;99.90
20973;DHT22;10645;52.370;13.314;2023-05-07T04:03:52;8.40;99.90
20973;DHT22;10645;52.370;13.314;2023-05-07T04:06:18;8.50;99.90
20973;DHT22;10645;52.370;13.314;2023-05-07T04:08:46;8.40;99.90
20973;DHT22;10645;52.370;13.314;2023-05-07T04:11:13;8.50;99.90
20973;DHT22;10645;52.370;13.314;2023-05-07T04:13:39;8.40;99.90
20973;DHT22;10645;52.370;13.314;2023-05-07T04:16:07;8.40;99.90
20973;DHT22;10645;52.370;13.314;2023-05-07T04:18:35;8.50;99.90
20973;DHT22;10645;52.370;13.314;2023-05-07T04:21:01;8.40;99.90
20973;DHT22;10645;52.370;13.314;2023-05-07T04:23:28;8.50;99.90
20973;DHT22;10645;52.370;13.314;2023-05-07T04:25:55;8.40;99.90
20973;DHT22;10645;52.370;13.314;2023-05-07T04:28:31;8.40;99.90
20973;DHT22;10645;52.370;13.314;2023-05-07T04:30:57;8.40;99.90
20973;DHT22;10645;52.370;13.314;2023-05-07T04:33:23;8.40;99.90
20973;DHT22;10645;52.370;13.314;2023-05-07T04:35:50;8.50;99.90
20973;DHT22;10645;52.370;13.314;2023-05-07T04:38:16;8.50;99.90
20973;DHT22;10645;52.370;13.314;2023-05-07T04:40:44;8.50;99.90
20973;DHT22;10645;52.370;13.314;2023-05-07T04:43:14;8.50;99.90
20973;DHT22;10645;52.370;13.314;2023-05-07T04:45:46;8.50;99.90
20973;DHT22;10645;52.370;13.314;2023-05-07T04:48:12;8.50;99.90
20973;DHT22;10645;52.370;13.314;2023-05-07T04:50:40;8.50;99.90
20973;DHT22;10645;52.370;13.314;2023-05-07T04:53:07;8.50;99.90
20973;DHT22;10645;52.370;13.314;2023-05-07T04:55:33;8.60;99.90
20973;DHT22;10645;52.370;13.314;2023-05-07T04:57:59;8.60;99.90
20973;DHT22;10645;52.370;13.314;2023-05-07T05:00:28;8.60;99.90
20973;DHT22;10645;52.370;13.314;2023-05-07T05:02:55;8.60;99.90
20973;DHT22;10645;52.370;13.314;2023-05-07T05:05:22;8.70;99.90
20973;DHT22;10645;52.370;13.314;2023-05-07T05:07:51;8.70;99.90
20973;DHT22;10645;52.370;13.314;2023-05-07T05:10:18;8.70;99.90
20973;DHT22;10645;52.370;13.314;2023-05-07T05:12:44;8.60;99.90
20973;DHT22;10645;52.370;13.314;2023-05-07T05:15:14;8.70;99.90
20973;DHT22;10645;52.370;13.314;2023-05-07T05:17:40;8.80;99.90
20973;DHT22;10645;52.370;13.314;2023-05-07T05:20:07;8.80;99.90
20973;DHT22;10645;52.370;13.314;2023-05-07T05:22:34;8.80;99.90
20973;DHT22;10645;52.370;13.314;2023-05-07T05:25:01;8.90;99.90
20973;DHT22;10645;52.370;13.314;2023-05-07T05:27:28;8.90;99.90
20973;DHT22;10645;52.370;13.314;2023-05-07T05:29:54;9.00;99.90
20973;DHT22;10645;52.370;13.314;2023-05-07T05:32:21;9.00;99.90
20973;DHT22;10645;52.370;13.314;2023-05-07T05:34:48;9.00;99.90
20973;DHT22;10645;52.370;13.314;2023-05-07T05:37:14;9.00;99.90
20973;DHT22;10645;52.370;13.314;2023-05-07T05:39:40;8.90;99.90
20973;DHT22;10645;52.370;13.314;2023-05-07T05:42:09;8.90;99.90
20973;DHT22;10645;52.370;13.314;2023-05-07T05:44:36;9.00;99.90
20973;DHT22;10645;52.370;13.314;2023-05-07T05:47:02;9.10;99.90
20973;DHT22;10645;52.370;13.314;2023-05-07T05:49:29;9.10;99.90
20973;DHT22;10645;52.370;13.314;2023-05-07T05:51:55;9.20;99.90
20973;DHT22;10645;52.370;13.314;2023-05-07T05:54:24;9.40;99.90
20973;DHT22;10645;52.370;13.314;2023-05-07T05:56:51;9.50;99.90
20973;DHT22;10645;52.370;13.314;2023-05-07T05:59:18;9.60;99.90
20973;DHT22;10645;52.370;13.314;2023-05-07T06:01:44;9.70;99.90
20973;DHT22;10645;52.370;13.314;2023-05-07T06:04:11;9.90;99.90
20973;DHT22;10645;52.370;13.314;2023-05-07T06:06:37;10.00;99.90
20973;DHT22;10645;52.370;13.314;2023-05-07T06:09:03;10.20;99.90
20973;DHT22;10645;52.370;13.314;2023-05-07T06:11:36;10.30;99.90
20973;DHT22;10645;52.370;13.314;2023-05-07T06:14:02;10.30;99.90
20973;DHT22;10645;52.370;13.314;2023-05-07T06:16:30;10.50;99.90
20973;DHT22;10645;52.370;13.314;2023-05-07T06:18:56;10.50;99.90
20973;DHT22;10645;52.370;13.314;2023-05-07T06:21:23;10.60;99.90
20973;DHT22;10645;52.370;13.314;2023-05-07T06:23:49;10.70;99.90
20973;DHT22;10645;52.370;13.314;2023-05-07T06:26:18;10.80;99.90
20973;DHT22;10645;52.370;13.314;2023-05-07T06:28:46;10.80;99.90
20973;DHT22;10645;52.370;13.314;2023-05-07T06:31:29;10.70;99.90
20973;DHT22;10645;52.370;13.314;2023-05-07T06:34:00;10.70;99.90
20973;DHT22;10645;52.370;13.314;2023-05-07T06:36:33;10.70;99.90
20973;DHT22;10645;52.370;13.314;2023-05-07T06:39:04;10.70;99.90
20973;DHT22;10645;52.370;13.314;2023-05-07T06:41:30;10.70;99.90
20973;DHT22;10645;52.370;13.314;2023-05-07T06:44:02;10.90;99.90
20973;DHT22;10645;52.370;13.314;2023-05-07T06:46:43;11.00;99.90
20973;DHT22;10645;52.370;13.314;2023-05-07T06:49:09;11.10;99.90
20973;DHT22;10645;52.370;13.314;2023-05-07T06:51:35;11.10;99.90
20973;DHT22;10645;52.370;13.314;2023-05-07T06:54:03;11.10;99.90
20973;DHT22;10645;52.370;13.314;2023-05-07T06:56:31;11.10;99.90
20973;DHT22;10645;52.370;13.314;2023-05-07T06:58:57;11.00;99.90
20973;DHT22;10645;52.370;13.314;2023-05-07T07:01:23;10.90;99.90
20973;DHT22;10645;52.370;13.314;2023-05-07T07:03:49;10.90;99.90
20973;DHT22;10645;52.370;13.314;2023-05-07T07:06:17;10.80;99.90
20973;DHT22;10645;52.370;13.314;2023-05-07T07:08:43;10.80;99.90
20973;DHT22;10645;52.370;13.314;2023-05-07T07:11:13;10.80;99.90
20973;DHT22;10645;52.370;13.314;2023-05-07T07:13:39;10.90;99.90
20973;DHT22;10645;52.370;13.314;2023-05-07T07:16:06;11.10;99.90
20973;DHT22;10645;52.370;13.314;2023-05-07T07:18:32;11.30;99.90
20973;DHT22;10645;52.370;13.314;2023-05-07T07:20:58;11.50;99.90
20973;DHT22;10645;52.370;13.314;2023-05-07T07:23:25;11.70;99.90
20973;DHT22;10645;52.370;13.314;2023-05-07T07:25:52;12.00;99.90
20973;DHT22;10645;52.370;13.314;2023-05-07T07:28:20;12.40;99.90
20973;DHT22;10645;52.370;13.314;2023-05-07T07:30:46;12.80;99.90
20973;DHT22;10645;52.370;13.314;2023-05-07T07:33:12;13.00;99.90
20973;DHT22;10645;52.370;13.314;2023-05-07T07:35:38;13.20;99.90
20973;DHT22;10645;52.370;13.314;2023-05-07T07:38:05;12.90;99.90
20973;DHT22;10645;52.370;13.314;2023-05-07T07:40:34;12.70;99.90
20973;DHT22;10645;52.370;13.314;2023-05-07T07:43:00;12.50;99.90
20973;DHT22;10645;52.370;13.314;2023-05-07T07:45:27;12.50;99.90
20973;DHT22;10645;52.370;13.314;2023-05-07T07:47:53;12.30;99.90
20973;DHT22;10645;52.370;13.314;2023-05-07T07:50:19;12.30;99.90
20973;DHT22;10645;52.370;13.314;2023-05-07T07:52:46;12.30;99.90
20973;DHT22;10645;52.370;13.314;2023-05-07T07:55:14;12.50;99.90
20973;DHT22;10645;52.370;13.314;2023-05-07T07:57:46;12.70;99.90
20973;DHT22;10645;52.370;13.314;2023-05-07T08:00:13;12.70;99.90
20973;DHT22;10645;52.370;13.314;2023-05-07T08:02:50;12.90;99.90
20973;DHT22;10645;52.370;13.314;2023-05-07T08:05:23;13.00;99.90
20973;DHT22;10645;52.370;13.314;2023-05-07T08:07:49;12.90;99.90
20973;DHT22;10645;52.370;13.314;2023-05-07T08:10:22;13.10;99.90
20973;DHT22;10645;52.370;13.314;2023-05-07T08:12:53;13.50;99.90
20973;DHT22;10645;52.370;13.314;2023-05-07T08:15:19;13.60;99.90
20973;DHT22;10645;52.370;13.314;2023-05-07T08:17:46;13.50;99.90
20973;DHT22;10645;52.370;13.314;2023-05-07T08:20:13;13.30;99.90
20973;DHT22;10645;52.370;13.314;2023-05-07T08:22:39;13.30;99.90
20973;DHT22;10645;52.370;13.314;2023-05-07T08:25:06;13.50;99.90
20973;DHT22;10645;52.370;13.314;2023-05-07T08:27:32;13.90;99.90
20973;DHT22;10645;52.370;13.314;2023-05-07T08:29:59;13.90;99.90
20973;DHT22;10645;52.370;13.314;2023-05-07T08:32:25;13.90;99.90
20973;DHT22;10645;52.370;13.314;2023-05-07T08:34:51;14.00;99.90
20973;DHT22;10645;52.370;13.314;2023-05-07T08:37:18;14.10;99.90
20973;DHT22;10645;52.370;13.314;2023-05-07T08:39:45;14.00;99.90
20973;DHT22;10645;52.370;13.314;2023-05-07T08:42:18;14.20;99.90
20973;DHT22;10645;52.370;13.314;2023-05-07T08:44:46;14.20;99.90
20973;DHT22;10645;52.370;13.314;2023-05-07T08:47:14;14.40;99.90
20973;DHT22;10645;52.370;13.314;2023-05-07T08:49:41;14.60;99.90
20973;DHT22;10645;52.370;13.314;2023-05-07T08:52:08;14.50;99.90
20973;DHT22;10645;52.370;13.314;2023-05-07T08:54:36;14.70;99.90
20973;DHT22;10645;52.370;13.314;2023-05-07T08:57:04;14.80;99.90
20973;DHT22;10645;52.370;13.314;2023-05-07T08:59:33;14.90;99.90
20973;DHT22;10645;52.370;13.314;2023-05-07T09:01:59;15.30;99.90
20973;DHT22;10645;52.370;13.314;2023-05-07T09:04:26;15.20;99.90
20973;DHT22;10645;52.370;13.314;2023-05-07T09:06:53;15.20;99.90
20973;DHT22;10645;52.370;13.314;2023-05-07T09:09:21;15.10;99.90
20973;DHT22;10645;52.370;13.314;2023-05-07T09:11:56;14.90;99.90
20973;DHT22;10645;52.370;13.314;2023-05-07T09:14:25;14.70;99.90
20973;DHT22;10645;52.370;13.314;2023-05-07T09:16:55;14.60;99.90
20973;DHT22;10645;52.370;13.314;2023-05-07T09:19:26;14.40;99.90
20973;DHT22;10645;52.370;13.314;2023-05-07T09:22:01;14.40;99.90
20973;DHT22;10645;52.370;13.314;2023-05-07T09:24:31;14.60;99.90
20973;DHT22;10645;52.370;13.314;2023-05-07T09:27:02;15.00;99.90
20973;DHT22;10645;52.370;13.314;2023-05-07T09:29:29;15.30;99.90
20973;DHT22;10645;52.370;13.314;2023-05-07T09:31:56;15.80;99.90
20973;DHT22;10645;52.370;13.314;2023-05-07T09:34:22;15.80;99.90
20973;DHT22;10645;52.370;13.314;2023-05-07T09:36:49;15.90;99.90
20973;DHT22;10645;52.370;13.314;2023-05-07T09:39:15;16.20;99.90
20973;DHT22;10645;52.370;13.314;2023-05-07T09:41:46;16.10;99.90
20973;DHT22;10645;52.370;13.314;2023-05-07T09:44:19;15.80;99.90
20973;DHT22;10645;52.370;13.314;2023-05-07T09:46:53;15.50;99.90
20973;DHT22;10645;52.370;13.314;2023-05-07T09:49:27;15.30;99.90
20973;DHT22;10645;52.370;13.314;2023-05-07T09:52:01;15.50;99.90
20973;DHT22;10645;52.370;13.314;2023-05-07T09:54:30;15.50;99.90
20973;DHT22;10645;52.370;13.314;2023-05-07T09:56:58;15.40;99.90
20973;DHT22;10645;52.370;13.314;2023-05-07T09:59:27;15.30;99.90
20973;DHT22;10645;52.370;13.314;2023-05-07T10:01:57;15.10;99.90
20973;DHT22;10645;52.370;13.314;2023-05-07T10:04:25;15.00;99.90
20973;DHT22;10645;52.370;13.314;2023-05-07T10:06:53;15.10;99.90
20973;DHT22;10645;52.370;13.314;2023-05-07T10:09:21;15.40;99.90
20973;DHT22;10645;52.370;13.314;2023-05-07T10:11:49;15.20;99.90
20973;DHT22;10645;52.370;13.314;2023-05-07T10:14:16;15.20;99.90
20973;DHT22;10645;52.370;13.314;2023-05-07T10:16:44;15.40;99.90
20973;DHT22;10645;52.370;13.314;2023-05-07T10:19:14;15.80;99.90
20973;DHT22;10645;52.370;13.314;2023-05-07T10:22:05;16.00;99.90
20973;DHT22;10645;52.370;13.314;2023-05-07T10:24:34;16.20;99.90
20973;DHT22;10645;52.370;13.314;2023-05-07T10:27:12;16.40;99.90
20973;DHT22;10645;52.370;13.314;2023-05-07T10:32:51;16.60;99.90
20973;DHT22;10645;52.370;13.314;2023-05-07T10:35:31;16.00;99.90
20973;DHT22;10645;52.370;13.314;2023-05-07T10:38:00;15.70;99.90
20973;DHT22;10645;52.370;13.314;2023-05-07T10:40:30;15.60;99.90
20973;DHT22;10645;52.370;13.314;2023-05-07T10:43:01;15.50;99.90
20973;DHT22;10645;52.370;13.314;2023-05-07T10:45:32;15.60;99.90
20973;DHT22;10645;52.370;13.314;2023-05-07T10:48:10;15.70;99.90
20973;DHT22;10645;52.370;13.314;2023-05-07T10:50:39;15.60;99.90
20973;DHT22;10645;52.370;13.314;2023-05-07T10:58:49;17.30;99.90
20973;DHT22;10645;52.370;13.314;2023-05-07T11:01:49;17.40;99.90
20973;DHT22;10645;52.370;13.314;2023-05-07T11:04:16;17.60;99.90
20973;DHT22;10645;52.370;13.314;2023-05-07T11:15:12;17.80;99.90
20973;DHT22;10645;52.370;13.314;2023-05-07T11:17:56;18.20;99.90
20973;DHT22;10645;52.370;13.314;2023-05-07T11:20:58;18.30;99.90
20973;DHT22;10645;52.370;13.314;2023-05-07T11:26:41;18.70;99.90
20973;DHT22;10645;52.370;13.314;2023-05-07T11:29:19;18.60;99.90
20973;DHT22;10645;52.370;13.314;2023-05-07T11:31:50;18.90;99.90
20973;DHT22;10645;52.370;13.314;2023-05-07T11:34:26;18.90;99.90
20973;DHT22;10645;52.370;13.314;2023-05-07T11:36:54;18.80;99.90
20973;DHT22;10645;52.370;13.314;2023-05-07T11:39:31;18.70;99.90
20973;DHT22;10645;52.370;13.314;2023-05-07T11:42:00;18.80;99.90
20973;DHT22;10645;52.370;13.314;2023-05-07T11:44:43;18.70;99.90
20973;DHT22;10645;52.370;13.314;2023-05-07T11:47:10;18.50;99.90
20973;DHT22;10645;52.370;13.314;2023-05-07T11:49:36;18.70;99.90
20973;DHT22;10645;52.370;13.314;2023-05-07T11:52:02;18.90;99.90
20973;DHT22;10645;52.370;13.314;2023-05-07T11:54:35;19.00;99.90
20973;DHT22;10645;52.370;13.314;2023-05-07T11:57:02;19.00;99.90
20973;DHT22;10645;52.370;13.314;2023-05-07T11:59:28;19.10;99.90
20973;DHT22;10645;52.370;13.314;2023-05-07T12:01:58;19.20;99.90
20973;DHT22;10645;52.370;13.314;2023-05-07T12:04:25;19.10;99.90
20973;DHT22;10645;52.370;13.314;2023-05-07T12:06:54;18.90;99.90
20973;DHT22;10645;52.370;13.314;2023-05-07T12:09:21;18.70;99.90
20973;DHT22;10645;52.370;13.314;2023-05-07T12:11:47;18.60;99.90
20973;DHT22;10645;52.370;13.314;2023-05-07T12:14:14;18.90;99.90
20973;DHT22;10645;52.370;13.314;2023-05-07T12:16:42;19.10;99.90
20973;DHT22;10645;52.370;13.314;2023-05-07T12:19:09;19.40;99.90
20973;DHT22;10645;52.370;13.314;2023-05-07T12:21:38;19.60;99.90
20973;DHT22;10645;52.370;13.314;2023-05-07T12:24:05;19.90;99.90
20973;DHT22;10645;52.370;13.314;2023-05-07T12:26:31;19.90;99.90
20973;DHT22;10645;52.370;13.314;2023-05-07T12:28:58;20.20;99.90
20973;DHT22;10645;52.370;13.314;2023-05-07T12:31:26;19.90;99.40
20973;DHT22;10645;52.370;13.314;2023-05-07T12:33:52;19.90;99.30
20973;DHT22;10645;52.370;13.314;2023-05-07T12:36:18;19.30;99.90
20973;DHT22;10645;52.370;13.314;2023-05-07T12:38:44;18.90;99.90
20973;DHT22;10645;52.370;13.314;2023-05-07T12:41:11;19.10;99.90
20973;DHT22;10645;52.370;13.314;2023-05-07T12:43:38;19.20;99.90
20973;DHT22;10645;52.370;13.314;2023-05-07T12:46:06;19.00;99.90
20973;DHT22;10645;52.370;13.314;2023-05-07T12:48:33;18.80;99.90
20973;DHT22;10645;52.370;13.314;2023-05-07T12:51:00;18.70;99.90
20973;DHT22;10645;52.370;13.314;2023-05-07T12:53:28;18.70;99.90
20973;DHT22;10645;52.370;13.314;2023-05-07T12:55:56;18.70;99.90
20973;DHT22;10645;52.370;13.314;2023-05-07T12:58:30;19.00;99.90
20973;DHT22;10645;52.370;13.314;2023-05-07T13:01:00;19.00;99.90
20973;DHT22;10645;52.370;13.314;2023-05-07T13:03:34;19.10;99.50
20973;DHT22;10645;52.370;13.314;2023-05-07T13:06:03;19.20;99.90
20973;DHT22;10645;52.370;13.314;2023-05-07T13:08:32;19.20;99.10
20973;DHT22;10645;52.370;13.314;2023-05-07T13:11:00;18.90;99.40
20973;DHT22;10645;52.370;13.314;2023-05-07T13:13:30;18.70;99.50
20973;DHT22;10645;52.370;13.314;2023-05-07T13:15:57;18.00;99.90
20973;DHT22;10645;52.370;13.314;2023-05-07T13:18:25;17.50;99.90
20973;DHT22;10645;52.370;13.314;2023-05-07T13:20:52;17.30;99.90
20973;DHT22;10645;52.370;13.314;2023-05-07T13:23:18;17.60;99.90
20973;DHT22;10645;52.370;13.314;2023-05-07T13:25:44;17.90;99.90
20973;DHT22;10645;52.370;13.314;2023-05-07T13:28:10;17.90;99.90
20973;DHT22;10645;52.370;13.314;2023-05-07T13:30:37;18.00;99.90
20973;DHT22;10645;52.370;13.314;2023-05-07T13:33:03;18.30;99.90
20973;DHT22;10645;52.370;13.314;2023-05-07T13:35:29;18.40;99.90
20973;DHT22;10645;52.370;13.314;2023-05-07T13:37:55;18.80;99.90
20973;DHT22;10645;52.370;13.314;2023-05-07T13:40:22;18.70;99.90
20973;DHT22;10645;52.370;13.314;2023-05-07T13:42:50;18.90;99.90
20973;DHT22;10645;52.370;13.314;2023-05-07T13:45:18;19.30;99.90
20973;DHT22;10645;52.370;13.314;2023-05-07T13:47:45;19.40;99.30
20973;DHT22;10645;52.370;13.314;2023-05-07T13:50:12;19.40;99.80
20973;DHT22;10645;52.370;13.314;2023-05-07T13:52:42;19.30;99.40
20973;DHT22;10645;52.370;13.314;2023-05-07T13:55:12;19.30;98.50
20973;DHT22;10645;52.370;13.314;2023-05-07T13:57:38;19.10;97.80
20973;DHT22;10645;52.370;13.314;2023-05-07T14:00:05;19.10;98.60
20973;DHT22;10645;52.370;13.314;2023-05-07T14:02:41;18.90;98.20
20973;DHT22;10645;52.370;13.314;2023-05-07T14:05:07;18.70;98.50
20973;DHT22;10645;52.370;13.314;2023-05-07T14:07:34;18.70;99.10
20973;DHT22;10645;52.370;13.314;2023-05-07T14:10:01;19.00;99.10
20973;DHT22;10645;52.370;13.314;2023-05-07T14:12:28;19.00;99.90
20973;DHT22;10645;52.370;13.314;2023-05-07T14:14:54;19.00;99.10
20973;DHT22;10645;52.370;13.314;2023-05-07T14:17:21;19.10;99.90
20973;DHT22;10645;52.370;13.314;2023-05-07T14:19:48;19.20;99.80
20973;DHT22;10645;52.370;13.314;2023-05-07T14:22:14;19.00;99.20
20973;DHT22;10645;52.370;13.314;2023-05-07T14:24:41;18.70;99.00
20973;DHT22;10645;52.370;13.314;2023-05-07T14:27:07;18.80;99.30
20973;DHT22;10645;52.370;13.314;2023-05-07T14:29:33;18.90;98.10
20973;DHT22;10645;52.370;13.314;2023-05-07T14:32:01;18.80;98.90
20973;DHT22;10645;52.370;13.314;2023-05-07T14:34:29;19.00;98.50
20973;DHT22;10645;52.370;13.314;2023-05-07T14:36:55;19.50;97.90
20973;DHT22;10645;52.370;13.314;2023-05-07T14:39:21;19.60;96.60
20973;DHT22;10645;52.370;13.314;2023-05-07T14:41:47;20.20;96.60
20973;DHT22;10645;52.370;13.314;2023-05-07T14:44:13;20.10;96.60
20973;DHT22;10645;52.370;13.314;2023-05-07T14:46:39;20.10;95.30
20973;DHT22;10645;52.370;13.314;2023-05-07T14:49:06;20.40;95.80
20973;DHT22;10645;52.370;13.314;2023-05-07T14:51:32;21.00;95.70
20973;DHT22;10645;52.370;13.314;2023-05-07T14:53:58;21.50;94.00
20973;DHT22;10645;52.370;13.314;2023-05-07T14:56:26;21.90;94.00
20973;DHT22;10645;52.370;13.314;2023-05-07T14:58:52;21.50;92.90
20973;DHT22;10645;52.370;13.314;2023-05-07T15:01:19;20.30;94.80
20973;DHT22;10645;52.370;13.314;2023-05-07T15:03:45;19.80;96.20
20973;DHT22;10645;52.370;13.314;2023-05-07T15:06:12;20.30;97.10
20973;DHT22;10645;52.370;13.314;2023-05-07T15:08:38;21.00;94.70
20973;DHT22;10645;52.370;13.314;2023-05-07T15:11:04;22.00;94.00
20973;DHT22;10645;52.370;13.314;2023-05-07T15:13:30;22.40;93.10
20973;DHT22;10645;52.370;13.314;2023-05-07T15:15:56;23.00;91.30
20973;DHT22;10645;52.370;13.314;2023-05-07T15:18:23;22.90;90.80
20973;DHT22;10645;52.370;13.314;2023-05-07T15:20:49;23.50;90.10
20973;DHT22;10645;52.370;13.314;2023-05-07T15:23:15;23.50;88.20
20973;DHT22;10645;52.370;13.314;2023-05-07T15:25:44;22.90;89.60
20973;DHT22;10645;52.370;13.314;2023-05-07T15:28:11;23.00;90.10
20973;DHT22;10645;52.370;13.314;2023-05-07T15:30:37;22.90;89.20
20973;DHT22;10645;52.370;13.314;2023-05-07T15:33:03;21.70;89.20
20973;DHT22;10645;52.370;13.314;2023-05-07T15:35:29;20.80;91.70
20973;DHT22;10645;52.370;13.314;2023-05-07T15:37:55;19.90;92.30
20973;DHT22;10645;52.370;13.314;2023-05-07T15:40:21;19.70;93.40
20973;DHT22;10645;52.370;13.314;2023-05-07T15:42:47;19.90;93.10
20973;DHT22;10645;52.370;13.314;2023-05-07T15:45:13;20.60;92.40
20973;DHT22;10645;52.370;13.314;2023-05-07T15:47:40;21.10;91.30